sensor_id;sensor_type;location;lat;lon;timestamp;P1;durP1;ratioP1;P2;durP2;ratioP2
45011;SDS011;63444;48.148;11.542;2023-05-10T00:00:43;1.43;;;1.10;;
45011;SDS011;63444;48.148;11.542;2023-05-10T00:03:11;1.30;;;1.20;;
45011;SDS011;63444;48.148;11.542;2023-05-10T00:05:37;1.30;;;1.00;;
45011;SDS011;63444;48.148;11.542;2023-05-10T00:08:02;1.23;;;1.10;;
45011;SDS011;63444;48.148;11.542;2023-05-10T00:10:28;1.43;;;1.10;;
45011;SDS011;63444;48.148;11.542;2023-05-10T00:12:53;1.13;;;1.00;;
45011;SDS011;63444;48.148;11.542;2023-05-10T00:15:19;1.77;;;1.10;;
45011;SDS011;63444;48.148;11.542;2023-05-10T00:17:45;1.17;;;1.00;;
45011;SDS011;63444;48.148;11.542;2023-05-10T00:20:10;1.50;;;1.10;;
45011;SDS011;63444;48.148;11.542;2023-05-10T00:22:36;1.80;;;0.90;;
45011;SDS011;63444;48.148;11.542;2023-05-10T00:25:02;2.03;;;1.10;;
45011;SDS011;63444;48.148;11.542;2023-05-10T00:27:27;0.80;;;0.80;;
45011;SDS011;63444;48.148;11.542;2023-05-10T00:29:53;1.23;;;1.00;;
45011;SDS011;63444;48.148;11.542;2023-05-10T00:32:19;1.33;;;0.90;;
45011;SDS011;63444;48.148;11.542;2023-05-10T00:34:44;0.83;;;0.80;;
45011;SDS011;63444;48.148;11.542;2023-05-10T00:37:10;1.57;;;1.00;;
45011;SDS011;63444;48.148;11.542;2023-05-10T00:39:35;1.80;;;0.70;;
45011;SDS011;63444;48.148;11.542;2023-05-10T00:42:01;0.70;;;0.70;;
45011;SDS011;63444;48.148;11.542;2023-05-10T00:44:26;0.70;;;0.70;;
45011;SDS011;63444;48.148;11.542;2023-05-10T00:46:52;0.80;;;0.80;;
45011;SDS011;63444;48.148;11.542;2023-05-10T00:49:18;0.73;;;0.73;;
45011;SDS011;63444;48.148;11.542;2023-05-10T00:51:44;1.40;;;0.80;;
45011;SDS011;63444;48.148;11.542;2023-05-10T00:54:11;0.80;;;0.80;;
45011;SDS011;63444;48.148;11.542;2023-05-10T00:56:38;0.80;;;0.80;;
45011;SDS011;63444;48.148;11.542;2023-05-10T00:59:05;5.73;;;0.70;;
45011;SDS011;63444;48.148;11.542;2023-05-10T01:01:31;0.70;;;0.70;;
45011;SDS011;63444;48.148;11.542;2023-05-10T01:03:57;1.23;;;1.00;;
45011;SDS011;63444;48.148;11.542;2023-05-10T01:06:23;1.47;;;0.90;;
45011;SDS011;63444;48.148;11.542;2023-05-10T01:08:49;2.10;;;0.80;;
45011;SDS011;63444;48.148;11.542;2023-05-10T01:11:15;0.97;;;0.80;;
45011;SDS011;63444;48.148;11.542;2023-05-10T01:13:41;0.70;;;0.70;;
45011;SDS011;63444;48.148;11.542;2023-05-10T01:16:08;0.80;;;0.80;;
45011;SDS011;63444;48.148;11.542;2023-05-10T01:18:35;1.10;;;1.00;;
45011;SDS011;63444;48.148;11.542;2023-05-10T01:24:09;0.70;;;0.70;;
45011;SDS011;63444;48.148;11.542;2023-05-10T01:32:06;0.70;;;0.70;;
45011;SDS011;63444;48.148;11.542;2023-05-10T01:34:50;0.67;;;0.67;;
45011;SDS011;63444;48.148;11.542;2023-05-10T01:37:22;0.70;;;0.70;;
45011;SDS011;63444;48.148;11.542;2023-05-10T01:42:40;1.33;;;0.80;;
45011;SDS011;63444;48.148;11.542;2023-05-10T01:45:24;0.60;;;0.60;;
45011;SDS011;63444;48.148;11.542;2023-05-10T01:48:06;0.77;;;0.70;;
45011;SDS011;63444;48.148;11.542;2023-05-10T01:50:35;0.77;;;0.73;;
45011;SDS011;63444;48.148;11.542;2023-05-10T01:53:02;0.80;;;0.80;;
45011;SDS011;63444;48.148;11.542;2023-05-10T01:55:32;0.70;;;0.70;;
45011;SDS011;63444;48.148;11.542;2023-05-10T01:58:14;0.60;;;0.60;;
45011;SDS011;63444;48.148;11.542;2023-05-10T02:00:44;1.60;;;0.70;;
45011;SDS011;63444;48.148;11.542;2023-05-10T02:03:11;0.70;;;0.70;;
45011;SDS011;63444;48.148;11.542;2023-05-10T02:05:37;0.70;;;0.70;;
45011;SDS011;63444;48.148;11.542;2023-05-10T02:08:05;0.67;;;0.67;;
45011;SDS011;63444;48.148;11.542;2023-05-10T02:10:35;0.60;;;0.60;;
45011;SDS011;63444;48.148;11.542;2023-05-10T02:13:02;0.90;;;0.90;;
45011;SDS011;63444;48.148;11.542;2023-05-10T02:15:29;0.70;;;0.70;;
45011;SDS011;63444;48.148;11.542;2023-05-10T02:17:56;0.67;;;0.60;;
45011;SDS011;63444;48.148;11.542;2023-05-10T02:20:23;1.33;;;0.63;;
45011;SDS011;63444;48.148;11.542;2023-05-10T02:22:51;0.93;;;0.60;;
45011;SDS011;63444;48.148;11.542;2023-05-10T02:25:19;0.70;;;0.70;;
45011;SDS011;63444;48.148;11.542;2023-05-10T02:27:46;0.67;;;0.67;;
45011;SDS011;63444;48.148;11.542;2023-05-10T02:30:13;0.63;;;0.60;;
45011;SDS011;63444;48.148;11.542;2023-05-10T02:32:39;0.63;;;0.63;;
45011;SDS011;63444;48.148;11.542;2023-05-10T02:35:05;0.67;;;0.67;;
45011;SDS011;63444;48.148;11.542;2023-05-10T02:37:33;0.80;;;0.80;;
45011;SDS011;63444;48.148;11.542;2023-05-10T02:40:00;1.67;;;0.70;;
45011;SDS011;63444;48.148;11.542;2023-05-10T02:42:28;1.90;;;0.80;;
45011;SDS011;63444;48.148;11.542;2023-05-10T02:45:00;0.87;;;0.87;;
45011;SDS011;63444;48.148;11.542;2023-05-10T02:47:28;0.87;;;0.70;;
45011;SDS011;63444;48.148;11.542;2023-05-10T02:49:54;0.60;;;0.60;;
45011;SDS011;63444;48.148;11.542;2023-05-10T02:52:24;0.93;;;0.80;;
45011;SDS011;63444;48.148;11.542;2023-05-10T02:54:54;0.73;;;0.73;;
45011;SDS011;63444;48.148;11.542;2023-05-10T02:57:23;0.70;;;0.70;;
45011;SDS011;63444;48.148;11.542;2023-05-10T02:59:52;0.60;;;0.60;;
45011;SDS011;63444;48.148;11.542;2023-05-10T03:02:18;0.60;;;0.60;;
45011;SDS011;63444;48.148;11.542;2023-05-10T03:04:43;0.70;;;0.70;;
45011;SDS011;63444;48.148;11.542;2023-05-10T03:07:09;0.60;;;0.60;;
45011;SDS011;63444;48.148;11.542;2023-05-10T03:09:35;0.70;;;0.70;;
45011;SDS011;63444;48.148;11.542;2023-05-10T03:12:06;0.97;;;0.77;;
45011;SDS011;63444;48.148;11.542;2023-05-10T03:14:42;0.90;;;0.70;;
45011;SDS011;63444;48.148;11.542;2023-05-10T03:17:22;0.70;;;0.70;;
45011;SDS011;63444;48.148;11.542;2023-05-10T03:19:54;0.63;;;0.63;;
45011;SDS011;63444;48.148;11.542;2023-05-10T03:22:31;0.60;;;0.60;;
45011;SDS011;63444;48.148;11.542;2023-05-10T03:25:02;0.80;;;0.80;;
45011;SDS011;63444;48.148;11.542;2023-05-10T03:27:31;0.60;;;0.60;;
45011;SDS011;63444;48.148;11.542;2023-05-10T03:29:58;0.70;;;0.70;;
45011;SDS011;63444;48.148;11.542;2023-05-10T03:32:26;0.60;;;0.60;;
45011;SDS011;63444;48.148;11.542;2023-05-10T03:34:53;0.50;;;0.50;;
45011;SDS011;63444;48.148;11.542;2023-05-10T03:37:19;1.60;;;0.70;;
45011;SDS011;63444;48.148;11.542;2023-05-10T03:39:44;1.17;;;0.90;;
45011;SDS011;63444;48.148;11.542;2023-05-10T03:42:10;0.60;;;0.60;;
45011;SDS011;63444;48.148;11.542;2023-05-10T03:44:38;0.60;;;0.60;;
45011;SDS011;63444;48.148;11.542;2023-05-10T03:47:04;0.87;;;0.70;;
45011;SDS011;63444;48.148;11.542;2023-05-10T03:49:29;0.67;;;0.63;;
45011;SDS011;63444;48.148;11.542;2023-05-10T03:51:56;0.60;;;0.60;;
45011;SDS011;63444;48.148;11.542;2023-05-10T03:54:22;0.77;;;0.70;;
45011;SDS011;63444;48.148;11.542;2023-05-10T03:56:48;0.70;;;0.70;;
45011;SDS011;63444;48.148;11.542;2023-05-10T03:59:13;0.70;;;0.70;;
45011;SDS011;63444;48.148;11.542;2023-05-10T04:01:39;0.80;;;0.80;;
45011;SDS011;63444;48.148;11.542;2023-05-10T04:04:04;1.33;;;0.80;;
45011;SDS011;63444;48.148;11.542;2023-05-10T04:06:30;0.80;;;0.80;;
45011;SDS011;63444;48.148;11.542;2023-05-10T04:08:55;1.90;;;0.80;;
45011;SDS011;63444;48.148;11.542;2023-05-10T04:11:24;1.53;;;0.70;;
45011;SDS011;63444;48.148;11.542;2023-05-10T04:13:50;0.73;;;0.73;;
45011;SDS011;63444;48.148;11.542;2023-05-10T04:16:16;0.83;;;0.67;;
45011;SDS011;63444;48.148;11.542;2023-05-10T04:18:41;2.17;;;0.63;;
45011;SDS011;63444;48.148;11.542;2023-05-10T04:21:13;0.80;;;0.60;;
45011;SDS011;63444;48.148;11.542;2023-05-10T04:23:39;1.07;;;0.80;;
45011;SDS011;63444;48.148;11.542;2023-05-10T04:26:06;0.77;;;0.73;;
45011;SDS011;63444;48.148;11.542;2023-05-10T04:28:32;1.23;;;0.70;;
45011;SDS011;63444;48.148;11.542;2023-05-10T04:31:01;0.80;;;0.73;;
45011;SDS011;63444;48.148;11.542;2023-05-10T04:33:27;0.60;;;0.60;;
45011;SDS011;63444;48.148;11.542;2023-05-10T04:35:53;1.23;;;0.80;;
45011;SDS011;63444;48.148;11.542;2023-05-10T04:38:18;1.37;;;0.90;;
45011;SDS011;63444;48.148;11.542;2023-05-10T04:40:44;0.90;;;0.70;;
45011;SDS011;63444;48.148;11.542;2023-05-10T04:43:09;1.30;;;0.80;;
45011;SDS011;63444;48.148;11.542;2023-05-10T04:45:35;2.20;;;1.10;;
45011;SDS011;63444;48.148;11.542;2023-05-10T04:48:00;0.70;;;0.70;;
45011;SDS011;63444;48.148;11.542;2023-05-10T04:50:26;0.90;;;0.70;;
45011;SDS011;63444;48.148;11.542;2023-05-10T04:52:51;0.67;;;0.60;;
45011;SDS011;63444;48.148;11.542;2023-05-10T04:55:17;2.57;;;0.70;;
45011;SDS011;63444;48.148;11.542;2023-05-10T04:57:42;1.30;;;0.67;;
45011;SDS011;63444;48.148;11.542;2023-05-10T05:00:08;0.67;;;0.60;;
45011;SDS011;63444;48.148;11.542;2023-05-10T05:02:34;1.70;;;0.70;;
45011;SDS011;63444;48.148;11.542;2023-05-10T05:05:00;1.33;;;0.73;;
45011;SDS011;63444;48.148;11.542;2023-05-10T05:07:25;0.90;;;0.60;;
45011;SDS011;63444;48.148;11.542;2023-05-10T05:09:51;0.80;;;0.60;;
45011;SDS011;63444;48.148;11.542;2023-05-10T05:12:16;0.60;;;0.60;;
45011;SDS011;63444;48.148;11.542;2023-05-10T05:14:42;0.50;;;0.50;;
45011;SDS011;63444;48.148;11.542;2023-05-10T05:17:08;0.60;;;0.60;;
45011;SDS011;63444;48.148;11.542;2023-05-10T05:19:33;0.70;;;0.70;;
45011;SDS011;63444;48.148;11.542;2023-05-10T05:21:59;0.70;;;0.50;;
45011;SDS011;63444;48.148;11.542;2023-05-10T05:24:24;2.20;;;0.67;;
45011;SDS011;63444;48.148;11.542;2023-05-10T05:26:50;0.50;;;0.50;;
45011;SDS011;63444;48.148;11.542;2023-05-10T05:29:15;0.67;;;0.60;;
45011;SDS011;63444;48.148;11.542;2023-05-10T05:31:41;0.70;;;0.70;;
45011;SDS011;63444;48.148;11.542;2023-05-10T05:34:06;0.70;;;0.70;;
45011;SDS011;63444;48.148;11.542;2023-05-10T05:36:36;0.70;;;0.70;;
45011;SDS011;63444;48.148;11.542;2023-05-10T05:39:05;0.77;;;0.77;;
45011;SDS011;63444;48.148;11.542;2023-05-10T05:41:30;0.80;;;0.80;;
45011;SDS011;63444;48.148;11.542;2023-05-10T05:43:56;0.73;;;0.70;;
45011;SDS011;63444;48.148;11.542;2023-05-10T05:46:21;0.80;;;0.80;;
45011;SDS011;63444;48.148;11.542;2023-05-10T05:48:47;1.20;;;0.90;;
45011;SDS011;63444;48.148;11.542;2023-05-10T05:51:12;0.87;;;0.80;;
45011;SDS011;63444;48.148;11.542;2023-05-10T05:53:38;1.07;;;0.87;;
45011;SDS011;63444;48.148;11.542;2023-05-10T05:56:04;1.33;;;1.00;;
45011;SDS011;63444;48.148;11.542;2023-05-10T05:58:29;1.00;;;0.90;;
45011;SDS011;63444;48.148;11.542;2023-05-10T06:00:55;0.70;;;0.70;;
45011;SDS011;63444;48.148;11.542;2023-05-10T06:03:20;1.50;;;0.70;;
45011;SDS011;63444;48.148;11.542;2023-05-10T06:05:46;0.80;;;0.80;;
45011;SDS011;63444;48.148;11.542;2023-05-10T06:08:12;2.13;;;0.70;;
45011;SDS011;63444;48.148;11.542;2023-05-10T06:10:37;1.07;;;0.90;;
45011;SDS011;63444;48.148;11.542;2023-05-10T06:13:03;1.17;;;0.80;;
45011;SDS011;63444;48.148;11.542;2023-05-10T06:15:28;0.80;;;0.80;;
45011;SDS011;63444;48.148;11.542;2023-05-10T06:17:54;1.33;;;0.90;;
45011;SDS011;63444;48.148;11.542;2023-05-10T06:20:20;0.80;;;0.80;;
45011;SDS011;63444;48.148;11.542;2023-05-10T06:22:46;0.90;;;0.80;;
45011;SDS011;63444;48.148;11.542;2023-05-10T06:25:11;0.67;;;0.67;;
45011;SDS011;63444;48.148;11.542;2023-05-10T06:27:37;2.03;;;0.87;;
45011;SDS011;63444;48.148;11.542;2023-05-10T06:30:03;1.10;;;0.83;;
45011;SDS011;63444;48.148;11.542;2023-05-10T06:32:30;2.43;;;0.80;;
45011;SDS011;63444;48.148;11.542;2023-05-10T06:34:56;0.80;;;0.80;;
45011;SDS011;63444;48.148;11.542;2023-05-10T06:37:23;0.80;;;0.80;;
45011;SDS011;63444;48.148;11.542;2023-05-10T06:39:48;2.83;;;1.03;;
45011;SDS011;63444;48.148;11.542;2023-05-10T06:42:14;1.47;;;0.80;;
45011;SDS011;63444;48.148;11.542;2023-05-10T06:44:39;0.83;;;0.83;;
45011;SDS011;63444;48.148;11.542;2023-05-10T06:47:05;0.70;;;0.70;;
45011;SDS011;63444;48.148;11.542;2023-05-10T06:49:30;0.80;;;0.80;;
45011;SDS011;63444;48.148;11.542;2023-05-10T06:51:56;1.80;;;0.87;;
45011;SDS011;63444;48.148;11.542;2023-05-10T06:54:22;0.90;;;0.90;;
45011;SDS011;63444;48.148;11.542;2023-05-10T06:56:48;1.13;;;1.00;;
45011;SDS011;63444;48.148;11.542;2023-05-10T06:59:13;0.70;;;0.70;;
45011;SDS011;63444;48.148;11.542;2023-05-10T07:01:41;1.73;;;0.87;;
45011;SDS011;63444;48.148;11.542;2023-05-10T07:04:07;1.67;;;0.93;;
45011;SDS011;63444;48.148;11.542;2023-05-10T07:06:33;2.20;;;0.90;;
45011;SDS011;63444;48.148;11.542;2023-05-10T07:08:59;0.90;;;0.90;;
45011;SDS011;63444;48.148;11.542;2023-05-10T07:11:25;0.97;;;0.87;;
45011;SDS011;63444;48.148;11.542;2023-05-10T07:13:51;1.40;;;1.00;;
45011;SDS011;63444;48.148;11.542;2023-05-10T07:16:17;0.90;;;0.90;;
45011;SDS011;63444;48.148;11.542;2023-05-10T07:18:42;1.03;;;0.97;;
45011;SDS011;63444;48.148;11.542;2023-05-10T07:21:08;1.30;;;1.13;;
45011;SDS011;63444;48.148;11.542;2023-05-10T07:23:35;1.03;;;0.80;;
45011;SDS011;63444;48.148;11.542;2023-05-10T07:26:01;1.17;;;1.07;;
45011;SDS011;63444;48.148;11.542;2023-05-10T07:28:27;1.03;;;1.03;;
45011;SDS011;63444;48.148;11.542;2023-05-10T07:30:52;3.23;;;1.10;;
45011;SDS011;63444;48.148;11.542;2023-05-10T07:33:18;1.00;;;0.90;;
45011;SDS011;63444;48.148;11.542;2023-05-10T07:35:44;1.17;;;0.90;;
45011;SDS011;63444;48.148;11.542;2023-05-10T07:38:09;1.10;;;1.00;;
45011;SDS011;63444;48.148;11.542;2023-05-10T07:40:36;2.17;;;1.13;;
45011;SDS011;63444;48.148;11.542;2023-05-10T07:43:01;1.53;;;1.07;;
45011;SDS011;63444;48.148;11.542;2023-05-10T07:45:27;5.13;;;1.27;;
45011;SDS011;63444;48.148;11.542;2023-05-10T07:47:53;0.90;;;0.90;;
45011;SDS011;63444;48.148;11.542;2023-05-10T07:50:19;0.80;;;0.80;;
45011;SDS011;63444;48.148;11.542;2023-05-10T07:52:46;1.00;;;1.00;;
45011;SDS011;63444;48.148;11.542;2023-05-10T07:55:12;1.80;;;1.37;;
45011;SDS011;63444;48.148;11.542;2023-05-10T07:57:37;1.07;;;0.90;;
45011;SDS011;63444;48.148;11.542;2023-05-10T08:00:04;1.10;;;1.00;;
45011;SDS011;63444;48.148;11.542;2023-05-10T08:02:30;8.53;;;1.50;;
45011;SDS011;63444;48.148;11.542;2023-05-10T08:04:56;0.90;;;0.90;;
45011;SDS011;63444;48.148;11.542;2023-05-10T08:07:22;2.10;;;0.90;;
45011;SDS011;63444;48.148;11.542;2023-05-10T08:09:49;1.40;;;0.90;;
45011;SDS011;63444;48.148;11.542;2023-05-10T08:12:15;1.90;;;1.00;;
45011;SDS011;63444;48.148;11.542;2023-05-10T08:14:40;1.90;;;0.90;;
45011;SDS011;63444;48.148;11.542;2023-05-10T08:17:06;1.63;;;0.90;;
45011;SDS011;63444;48.148;11.542;2023-05-10T08:19:31;2.57;;;1.20;;
45011;SDS011;63444;48.148;11.542;2023-05-10T08:21:57;1.40;;;0.93;;
45011;SDS011;63444;48.148;11.542;2023-05-10T08:24:23;2.60;;;1.30;;
45011;SDS011;63444;48.148;11.542;2023-05-10T08:26:48;2.40;;;1.07;;
45011;SDS011;63444;48.148;11.542;2023-05-10T08:29:14;3.90;;;1.00;;
45011;SDS011;63444;48.148;11.542;2023-05-10T08:31:40;1.07;;;0.83;;
45011;SDS011;63444;48.148;11.542;2023-05-10T08:34:06;4.53;;;1.10;;
45011;SDS011;63444;48.148;11.542;2023-05-10T08:36:31;0.80;;;0.80;;
45011;SDS011;63444;48.148;11.542;2023-05-10T08:38:58;2.33;;;1.00;;
45011;SDS011;63444;48.148;11.542;2023-05-10T08:41:24;1.63;;;1.00;;
45011;SDS011;63444;48.148;11.542;2023-05-10T08:43:50;4.27;;;1.00;;
45011;SDS011;63444;48.148;11.542;2023-05-10T08:46:17;1.53;;;1.00;;
45011;SDS011;63444;48.148;11.542;2023-05-10T08:48:44;5.13;;;1.10;;
45011;SDS011;63444;48.148;11.542;2023-05-10T08:51:14;2.57;;;1.40;;
45011;SDS011;63444;48.148;11.542;2023-05-10T08:53:43;1.23;;;1.00;;
45011;SDS011;63444;48.148;11.542;2023-05-10T08:56:09;2.27;;;0.97;;
45011;SDS011;63444;48.148;11.542;2023-05-10T08:58:35;0.87;;;0.80;;
45011;SDS011;63444;48.148;11.542;2023-05-10T09:01:01;0.90;;;0.90;;
45011;SDS011;63444;48.148;11.542;2023-05-10T09:03:28;1.10;;;1.00;;
45011;SDS011;63444;48.148;11.542;2023-05-10T09:05:54;1.43;;;1.00;;
45011;SDS011;63444;48.148;11.542;2023-05-10T09:08:20;0.73;;;0.73;;
45011;SDS011;63444;48.148;11.542;2023-05-10T09:10:50;2.00;;;0.80;;
45011;SDS011;63444;48.148;11.542;2023-05-10T09:13:16;1.87;;;0.97;;
45011;SDS011;63444;48.148;11.542;2023-05-10T09:15:43;1.90;;;0.93;;
45011;SDS011;63444;48.148;11.542;2023-05-10T09:18:10;1.83;;;0.80;;
45011;SDS011;63444;48.148;11.542;2023-05-10T09:20:35;1.27;;;1.10;;
45011;SDS011;63444;48.148;11.542;2023-05-10T09:23:01;2.00;;;1.10;;
45011;SDS011;63444;48.148;11.542;2023-05-10T09:25:26;1.37;;;0.87;;
45011;SDS011;63444;48.148;11.542;2023-05-10T09:27:52;1.20;;;0.70;;
45011;SDS011;63444;48.148;11.542;2023-05-10T09:30:28;2.00;;;0.80;;
45011;SDS011;63444;48.148;11.542;2023-05-10T09:32:55;0.70;;;0.70;;
45011;SDS011;63444;48.148;11.542;2023-05-10T09:35:23;1.93;;;1.20;;
45011;SDS011;63444;48.148;11.542;2023-05-10T09:37:51;8.30;;;1.00;;
45011;SDS011;63444;48.148;11.542;2023-05-10T09:40:22;2.27;;;0.87;;
45011;SDS011;63444;48.148;11.542;2023-05-10T09:42:59;4.17;;;0.93;;
45011;SDS011;63444;48.148;11.542;2023-05-10T09:45:28;9.30;;;1.43;;
45011;SDS011;63444;48.148;11.542;2023-05-10T09:47:55;2.23;;;0.93;;
45011;SDS011;63444;48.148;11.542;2023-05-10T09:50:22;2.00;;;0.87;;
45011;SDS011;63444;48.148;11.542;2023-05-10T09:52:49;2.20;;;1.20;;
45011;SDS011;63444;48.148;11.542;2023-05-10T09:55:16;2.80;;;0.77;;
45011;SDS011;63444;48.148;11.542;2023-05-10T09:57:43;2.43;;;0.90;;
45011;SDS011;63444;48.148;11.542;2023-05-10T10:00:09;1.30;;;0.83;;
45011;SDS011;63444;48.148;11.542;2023-05-10T10:02:35;0.80;;;0.80;;
45011;SDS011;63444;48.148;11.542;2023-05-10T10:05:01;2.60;;;0.90;;
45011;SDS011;63444;48.148;11.542;2023-05-10T10:07:30;1.10;;;0.90;;
45011;SDS011;63444;48.148;11.542;2023-05-10T10:09:56;3.83;;;0.80;;
45011;SDS011;63444;48.148;11.542;2023-05-10T10:12:22;2.20;;;1.10;;
45011;SDS011;63444;48.148;11.542;2023-05-10T10:14:48;1.43;;;1.00;;
45011;SDS011;63444;48.148;11.542;2023-05-10T10:17:15;2.27;;;0.93;;
45011;SDS011;63444;48.148;11.542;2023-05-10T10:19:41;2.50;;;1.03;;
45011;SDS011;63444;48.148;11.542;2023-05-10T10:22:07;1.67;;;1.10;;
45011;SDS011;63444;48.148;11.542;2023-05-10T10:24:33;1.53;;;1.03;;
45011;SDS011;63444;48.148;11.542;2023-05-10T10:27:42;0.90;;;0.90;;
45011;SDS011;63444;48.148;11.542;2023-05-10T10:30:04;1.10;;;1.00;;
45011;SDS011;63444;48.148;11.542;2023-05-10T10:32:47;2.23;;;1.00;;
45011;SDS011;63444;48.148;11.542;2023-05-10T10:35:27;1.10;;;1.03;;
45011;SDS011;63444;48.148;11.542;2023-05-10T10:37:56;0.93;;;0.90;;
45011;SDS011;63444;48.148;11.542;2023-05-10T10:40:26;1.10;;;0.70;;
45011;SDS011;63444;48.148;11.542;2023-05-10T10:42:57;6.87;;;2.53;;
45011;SDS011;63444;48.148;11.542;2023-05-10T10:45:23;3.17;;;1.60;;
45011;SDS011;63444;48.148;11.542;2023-05-10T10:50:55;2.13;;;0.90;;
45011;SDS011;63444;48.148;11.542;2023-05-10T10:53:24;4.80;;;2.23;;
45011;SDS011;63444;48.148;11.542;2023-05-10T10:55:53;3.97;;;1.20;;
45011;SDS011;63444;48.148;11.542;2023-05-10T10:58:31;2.07;;;1.20;;
45011;SDS011;63444;48.148;11.542;2023-05-10T11:01:14;2.37;;;1.50;;
45011;SDS011;63444;48.148;11.542;2023-05-10T11:04:04;4.27;;;1.50;;
45011;SDS011;63444;48.148;11.542;2023-05-10T11:06:30;1.97;;;1.30;;
45011;SDS011;63444;48.148;11.542;2023-05-10T11:08:59;2.50;;;1.10;;
45011;SDS011;63444;48.148;11.542;2023-05-10T11:11:35;4.60;;;1.20;;
45011;SDS011;63444;48.148;11.542;2023-05-10T11:14:13;1.20;;;1.00;;
45011;SDS011;63444;48.148;11.542;2023-05-10T11:16:42;2.80;;;1.17;;
45011;SDS011;63444;48.148;11.542;2023-05-10T11:19:12;1.53;;;1.10;;
45011;SDS011;63444;48.148;11.542;2023-05-10T11:22:23;1.93;;;1.20;;
45011;SDS011;63444;48.148;11.542;2023-05-10T11:24:30;1.10;;;1.00;;
45011;SDS011;63444;48.148;11.542;2023-05-10T11:26:56;1.20;;;1.10;;
45011;SDS011;63444;48.148;11.542;2023-05-10T11:29:22;1.27;;;1.17;;
45011;SDS011;63444;48.148;11.542;2023-05-10T11:31:48;1.10;;;1.00;;
45011;SDS011;63444;48.148;11.542;2023-05-10T11:34:24;1.83;;;0.93;;
45011;SDS011;63444;48.148;11.542;2023-05-10T11:36:51;2.23;;;1.40;;
45011;SDS011;63444;48.148;11.542;2023-05-10T11:39:18;1.27;;;1.17;;
45011;SDS011;63444;48.148;11.542;2023-05-10T11:41:48;1.50;;;1.30;;
45011;SDS011;63444;48.148;11.542;2023-05-10T11:44:14;1.80;;;1.17;;
45011;SDS011;63444;48.148;11.542;2023-05-10T11:46:40;2.83;;;1.27;;
45011;SDS011;63444;48.148;11.542;2023-05-10T11:49:06;2.60;;;1.30;;
45011;SDS011;63444;48.148;11.542;2023-05-10T11:51:35;2.13;;;1.10;;
45011;SDS011;63444;48.148;11.542;2023-05-10T11:54:01;2.37;;;1.50;;
45011;SDS011;63444;48.148;11.542;2023-05-10T11:56:32;3.37;;;1.47;;
45011;SDS011;63444;48.148;11.542;2023-05-10T11:58:58;1.27;;;1.10;;
45011;SDS011;63444;48.148;11.542;2023-05-10T12:01:25;1.70;;;1.10;;
45011;SDS011;63444;48.148;11.542;2023-05-10T12:03:52;1.20;;;1.10;;
45011;SDS011;63444;48.148;11.542;2023-05-10T12:06:19;1.90;;;0.80;;
45011;SDS011;63444;48.148;11.542;2023-05-10T12:08:46;1.00;;;1.00;;
45011;SDS011;63444;48.148;11.542;2023-05-10T12:11:14;2.00;;;1.13;;
45011;SDS011;63444;48.148;11.542;2023-05-10T12:13:41;1.53;;;0.90;;
45011;SDS011;63444;48.148;11.542;2023-05-10T12:16:21;1.60;;;1.10;;
45011;SDS011;63444;48.148;11.542;2023-05-10T12:18:48;2.07;;;1.13;;
45011;SDS011;63444;48.148;11.542;2023-05-10T12:21:18;2.20;;;1.33;;
45011;SDS011;63444;48.148;11.542;2023-05-10T12:23:46;2.10;;;1.20;;
45011;SDS011;63444;48.148;11.542;2023-05-10T12:26:13;1.67;;;1.07;;
45011;SDS011;63444;48.148;11.542;2023-05-10T12:28:39;1.60;;;1.30;;
45011;SDS011;63444;48.148;11.542;2023-05-10T12:31:05;3.60;;;1.10;;
45011;SDS011;63444;48.148;11.542;2023-05-10T12:33:38;1.43;;;1.10;;
45011;SDS011;63444;48.148;11.542;2023-05-10T12:36:06;2.20;;;1.20;;
45011;SDS011;63444;48.148;11.542;2023-05-10T12:38:36;1.00;;;1.00;;
45011;SDS011;63444;48.148;11.542;2023-05-10T12:41:11;1.97;;;1.23;;
45011;SDS011;63444;48.148;11.542;2023-05-10T12:43:38;1.90;;;1.47;;
45011;SDS011;63444;48.148;11.542;2023-05-10T12:46:05;2.50;;;1.13;;
45011;SDS011;63444;48.148;11.542;2023-05-10T12:48:31;1.10;;;1.00;;
45011;SDS011;63444;48.148;11.542;2023-05-10T12:50:58;1.67;;;1.40;;
45011;SDS011;63444;48.148;11.542;2023-05-10T12:53:24;1.87;;;1.27;;
45011;SDS011;63444;48.148;11.542;2023-05-10T12:55:50;1.77;;;1.27;;
45011;SDS011;63444;48.148;11.542;2023-05-10T12:58:15;2.03;;;1.10;;
45011;SDS011;63444;48.148;11.542;2023-05-10T13:00:41;1.30;;;1.20;;
45011;SDS011;63444;48.148;11.542;2023-05-10T13:03:06;1.20;;;1.07;;
45011;SDS011;63444;48.148;11.542;2023-05-10T13:05:32;3.43;;;1.40;;
45011;SDS011;63444;48.148;11.542;2023-05-10T13:07:58;1.67;;;1.20;;
45011;SDS011;63444;48.148;11.542;2023-05-10T13:10:23;1.53;;;1.20;;
45011;SDS011;63444;48.148;11.542;2023-05-10T13:12:50;2.13;;;1.20;;
45011;SDS011;63444;48.148;11.542;2023-05-10T13:15:15;2.27;;;1.17;;
45011;SDS011;63444;48.148;11.542;2023-05-10T13:17:41;1.63;;;1.10;;
45011;SDS011;63444;48.148;11.542;2023-05-10T13:20:08;1.60;;;1.10;;
45011;SDS011;63444;48.148;11.542;2023-05-10T13:22:37;5.20;;;1.40;;
45011;SDS011;63444;48.148;11.542;2023-05-10T13:25:02;2.73;;;1.77;;
45011;SDS011;63444;48.148;11.542;2023-05-10T13:27:28;2.60;;;1.50;;
45011;SDS011;63444;48.148;11.542;2023-05-10T13:29:54;1.87;;;1.47;;
45011;SDS011;63444;48.148;11.542;2023-05-10T13:32:20;1.73;;;1.47;;
45011;SDS011;63444;48.148;11.542;2023-05-10T13:34:45;1.80;;;1.40;;
45011;SDS011;63444;48.148;11.542;2023-05-10T13:37:11;3.07;;;1.43;;
45011;SDS011;63444;48.148;11.542;2023-05-10T13:39:36;3.33;;;1.50;;
45011;SDS011;63444;48.148;11.542;2023-05-10T13:42:02;1.73;;;1.60;;
45011;SDS011;63444;48.148;11.542;2023-05-10T13:44:28;1.20;;;1.10;;
45011;SDS011;63444;48.148;11.542;2023-05-10T13:46:54;4.13;;;1.60;;
45011;SDS011;63444;48.148;11.542;2023-05-10T13:49:20;1.30;;;1.20;;
45011;SDS011;63444;48.148;11.542;2023-05-10T13:51:47;4.37;;;1.60;;
45011;SDS011;63444;48.148;11.542;2023-05-10T13:54:12;1.67;;;1.57;;
45011;SDS011;63444;48.148;11.542;2023-05-10T13:56:38;1.63;;;1.40;;
45011;SDS011;63444;48.148;11.542;2023-05-10T13:59:05;1.53;;;1.30;;
45011;SDS011;63444;48.148;11.542;2023-05-10T14:01:32;2.83;;;1.60;;
45011;SDS011;63444;48.148;11.542;2023-05-10T14:03:58;2.27;;;1.50;;
45011;SDS011;63444;48.148;11.542;2023-05-10T14:06:24;2.27;;;1.50;;
45011;SDS011;63444;48.148;11.542;2023-05-10T14:08:49;2.77;;;1.30;;
45011;SDS011;63444;48.148;11.542;2023-05-10T14:11:15;3.07;;;1.43;;
45011;SDS011;63444;48.148;11.542;2023-05-10T14:13:41;1.60;;;1.30;;
45011;SDS011;63444;48.148;11.542;2023-05-10T14:16:06;3.30;;;1.57;;
45011;SDS011;63444;48.148;11.542;2023-05-10T14:18:32;1.20;;;1.10;;
45011;SDS011;63444;48.148;11.542;2023-05-10T14:20:58;2.90;;;1.60;;
45011;SDS011;63444;48.148;11.542;2023-05-10T14:23:24;2.13;;;1.40;;
45011;SDS011;63444;48.148;11.542;2023-05-10T14:25:51;1.80;;;1.40;;
45011;SDS011;63444;48.148;11.542;2023-05-10T14:28:17;1.20;;;1.10;;
45011;SDS011;63444;48.148;11.542;2023-05-10T14:30:43;3.07;;;1.50;;
45011;SDS011;63444;48.148;11.542;2023-05-10T14:33:09;1.90;;;1.30;;
45011;SDS011;63444;48.148;11.542;2023-05-10T14:35:35;2.07;;;1.07;;
45011;SDS011;63444;48.148;11.542;2023-05-10T14:38:01;1.10;;;1.10;;
45011;SDS011;63444;48.148;11.542;2023-05-10T14:40:28;1.30;;;1.20;;
45011;SDS011;63444;48.148;11.542;2023-05-10T14:42:54;2.00;;;1.33;;
45011;SDS011;63444;48.148;11.542;2023-05-10T14:45:21;1.20;;;1.10;;
45011;SDS011;63444;48.148;11.542;2023-05-10T14:47:47;1.60;;;0.93;;